X  Sluiten METAR luchtvaart weer gegevens      EGNS Isle of Man Airport
Temperatuur
15°C Temperatuur
14°C Dauwpunt
94% Vochtigheid



Wind
7 MPH
11 KM/U
3 M/S
6 KTS



210°
ZZW
Huidig weer

Veel verspreide wolken Veel verspreide wolken
Luchtdruk 1018.96 (hPa) - 30.09 (inHg)
Zicht 6 (mijl) - 9.7 (km)
Vliegveld
Vliegveld code EGNS

Locatie : Isle of Man Airport
Afstand: 18 (mi)

Metar:
EGNS 241320Z 21006KT 9999 SCT003 OVC004 15/14 Q1019 TEMPO BKN005

Tijd: 24-06-2024 14:20 BST